Anzoras — EAZC — position and weather

sailwx.info

Track history (hours):
 
Tides and Currents Weather Stations Pressure Air Temp Water Temp Dewpoint Dewpoint Depression Visibility Wind Speed Wind Dir Waves Ship Positions

Anzoras

Last reported at 2014-Sep-02 21:24 UTC. Time now 2014-Sep-03 02:32 UTC.
Position N 38°06' W 000°03'.

Length 84 m; draft 6.1 m.

Type: Cargo ship. MMSI: 224376000.

Date/timePositionNaut miles runAvg speedWind from/ knotsBaromVisibWave heightAir tempDewpointWater temp
2014-Sep-02 21:24N 38°06' W 000°03'1411.7
2014-Sep-02 20:14N 37°54' W 000°13'1112.1
2014-Sep-02 19:18N 37°45' W 000°21'911.9
2014-Sep-02 18:33N 37°37' W 000°27'1211.8
2014-Sep-02 17:33N 37°29' W 000°37'1211.8
2014-Sep-02 16:33N 37°21' W 000°48'375 9.4
2014-Sep-01 00:33N 36°24' W 008°31'1211.7
2014-Aug-31 23:33N 36°27' W 008°45'1212.2
2014-Aug-31 22:33N 36°29' W 008°60'1712.0
2014-Aug-31 21:08N 36°35' W 009°20'712.2
2014-Aug-31 20:31N 36°41' W 009°26'1311.7
2014-Aug-31 19:27N 36°52' W 009°34'1112.0
2014-Aug-31 18:33N 37°02' W 009°35'1211.7
2014-Aug-31 17:32N 37°14' W 009°34'1212.3
2014-Aug-31 16:33N 37°26' W 009°33'1212.1
2014-Aug-31 15:32N 37°39' W 009°30'4811.9
2014-Aug-31 11:28N 38°26' W 009°24'1111.9
2014-Aug-31 10:33N 38°37' W 009°22'9 9.3
2014-Aug-31 09:33N 38°41' W 009°11'0 0.0
2014-Aug-31 08:33N 38°41' W 009°11'0 0.0
2014-Aug-31 07:33N 38°41' W 009°11'0 0.0
2014-Aug-31 06:33N 38°41' W 009°11'0 0.0
2014-Aug-31 05:33N 38°41' W 009°11'0 0.0
2014-Aug-31 04:33N 38°41' W 009°11'0 0.0
2014-Aug-31 03:33N 38°41' W 009°11'0 0.0
2014-Aug-31 02:33N 38°41' W 009°11'0 0.0
2014-Aug-31 01:33N 38°41' W 009°11'0 0.0
2014-Aug-31 00:30N 38°41' W 009°11'0 0.0
2014-Aug-30 23:33N 38°41' W 009°11'0 0.0
2014-Aug-30 22:33N 38°41' W 009°11'0 0.0
2014-Aug-30 21:33N 38°41' W 009°11'0 0.0
2014-Aug-30 20:33N 38°41' W 009°11'0 0.0
2014-Aug-30 19:33N 38°41' W 009°11'0 0.0
2014-Aug-30 18:33N 38°41' W 009°11'0 0.0
2014-Aug-30 17:33N 38°41' W 009°11'0 0.0
2014-Aug-30 16:33N 38°41' W 009°11'0 0.0
2014-Aug-30 15:30N 38°41' W 009°11'0 0.0
2014-Aug-30 14:33N 38°41' W 009°11'0 0.0
2014-Aug-30 13:33N 38°41' W 009°11'0 0.0
2014-Aug-30 12:33N 38°41' W 009°11'0 0.0
2014-Aug-30 11:33N 38°41' W 009°11'1 1.1
2014-Aug-30 10:33N 38°41' W 009°12'9 8.5
2014-Aug-30 09:28N 38°37' W 009°23'1512.0
2014-Aug-30 08:12N 38°40' W 009°42'  
Track history (hours):
 
Tides and Currents Weather Stations Pressure Air Temp Water Temp Dewpoint Dewpoint Depression Visibility Wind Speed Wind Dir Waves Ship Positions

Anzoras

Last reported at 2014-Sep-02 21:24 UTC. Time now 2014-Sep-03 02:32 UTC.
Position N 38°06' W 000°03'.

Length 84 m; draft 6.1 m.

Type: Cargo ship. MMSI: 224376000.

Date/timePositionNaut miles runAvg speedWind from/ knotsBaromVisibWave heightAir tempDewpointWater temp
2014-Sep-02 21:24N 38°06' W 000°03'1411.7
2014-Sep-02 20:14N 37°54' W 000°13'1112.1
2014-Sep-02 19:18N 37°45' W 000°21'911.9
2014-Sep-02 18:33N 37°37' W 000°27'1211.8
2014-Sep-02 17:33N 37°29' W 000°37'1211.8
2014-Sep-02 16:33N 37°21' W 000°48'375 9.4
2014-Sep-01 00:33N 36°24' W 008°31'1211.7
2014-Aug-31 23:33N 36°27' W 008°45'1212.2
2014-Aug-31 22:33N 36°29' W 008°60'1712.0
2014-Aug-31 21:08N 36°35' W 009°20'712.2
2014-Aug-31 20:31N 36°41' W 009°26'1311.7
2014-Aug-31 19:27N 36°52' W 009°34'1112.0
2014-Aug-31 18:33N 37°02' W 009°35'1211.7
2014-Aug-31 17:32N 37°14' W 009°34'1212.3
2014-Aug-31 16:33N 37°26' W 009°33'1212.1
2014-Aug-31 15:32N 37°39' W 009°30'4811.9
2014-Aug-31 11:28N 38°26' W 009°24'1111.9
2014-Aug-31 10:33N 38°37' W 009°22'9 9.3
2014-Aug-31 09:33N 38°41' W 009°11'0 0.0
2014-Aug-31 08:33N 38°41' W 009°11'0 0.0
2014-Aug-31 07:33N 38°41' W 009°11'0 0.0
2014-Aug-31 06:33N 38°41' W 009°11'0 0.0
2014-Aug-31 05:33N 38°41' W 009°11'0 0.0
2014-Aug-31 04:33N 38°41' W 009°11'0 0.0
2014-Aug-31 03:33N 38°41' W 009°11'0 0.0
2014-Aug-31 02:33N 38°41' W 009°11'0 0.0
2014-Aug-31 01:33N 38°41' W 009°11'0 0.0
2014-Aug-31 00:30N 38°41' W 009°11'0 0.0
2014-Aug-30 23:33N 38°41' W 009°11'0 0.0
2014-Aug-30 22:33N 38°41' W 009°11'0 0.0
2014-Aug-30 21:33N 38°41' W 009°11'0 0.0
2014-Aug-30 20:33N 38°41' W 009°11'0 0.0
2014-Aug-30 19:33N 38°41' W 009°11'0 0.0
2014-Aug-30 18:33N 38°41' W 009°11'0 0.0
2014-Aug-30 17:33N 38°41' W 009°11'0 0.0
2014-Aug-30 16:33N 38°41' W 009°11'0 0.0
2014-Aug-30 15:30N 38°41' W 009°11'0 0.0
2014-Aug-30 14:33N 38°41' W 009°11'0 0.0
2014-Aug-30 13:33N 38°41' W 009°11'0 0.0
2014-Aug-30 12:33N 38°41' W 009°11'0 0.0
2014-Aug-30 11:33N 38°41' W 009°11'1 1.1
2014-Aug-30 10:33N 38°41' W 009°12'9 8.5
2014-Aug-30 09:28N 38°37' W 009°23'1512.0
2014-Aug-30 08:12N 38°40' W 009°42'  

Dump ship's entire track history